Time;durP1;ratioP1;P1;durP2;ratioP2;P2;SDS_P1;SDS_P2;PMS_P1;PMS_P2;Temp;Humidity;BMP_temperature;BMP_pressure;BME280_temperature;BME280_humidity;BME280_pressure;Samples;Min_cycle;Max_cycle;Signal;HPM_P1;HPM_P2
2021/07/20 00:02:24;;;;;;;6.95;3.42;;;18.20;73.40;;;;;;4935137;29;20028;-84
2021/07/20 00:04:50;;;;;;;9.45;3.97;;;18.20;73.50;;;;;;4934585;29;20091;-84
2021/07/20 00:07:16;;;;;;;9.77;4.18;;;18.10;73.50;;;;;;4935298;29;20024;-85
2021/07/20 00:09:41;;;;;;;7.70;3.17;;;18.10;73.70;;;;;;4917431;29;20024;-84
2021/07/20 00:12:08;;;;;;;10.32;3.67;;;18.00;73.70;;;;;;4917950;29;20444;-84
2021/07/20 00:14:33;;;;;;;7.35;3.90;;;18.00;73.90;;;;;;4917544;29;20043;-82
2021/07/20 00:16:59;;;;;;;10.60;3.65;;;18.00;74.10;;;;;;4935212;29;20020;-84
2021/07/20 00:19:25;;;;;;;9.65;4.20;;;18.00;74.20;;;;;;4933969;29;20023;-84
2021/07/20 00:21:52;;;;;;;10.20;4.72;;;18.00;74.30;;;;;;4933676;29;20067;-84
2021/07/20 00:24:17;;;;;;;9.15;4.03;;;18.00;74.20;;;;;;4934054;29;20030;-84
2021/07/20 00:26:44;;;;;;;8.02;3.80;;;18.00;74.30;;;;;;4934819;29;20028;-84
2021/07/20 00:29:10;;;;;;;11.57;3.35;;;17.90;74.30;;;;;;4934351;29;20440;-84
2021/07/20 00:31:35;;;;;;;8.75;3.85;;;17.90;74.40;;;;;;4933386;29;20043;-83
2021/07/20 00:34:01;;;;;;;9.98;4.18;;;17.80;74.50;;;;;;4918269;29;20391;-84
2021/07/20 00:36:27;;;;;;;7.65;3.78;;;17.80;74.60;;;;;;4933934;29;20107;-85
2021/07/20 00:38:52;;;;;;;9.73;3.47;;;17.80;74.70;;;;;;4933101;29;20031;-84
2021/07/20 00:41:18;;;;;;;10.98;3.38;;;17.80;74.70;;;;;;4934153;29;20031;-84
2021/07/20 00:43:44;;;;;;;8.20;4.00;;;17.80;74.80;;;;;;4917245;29;20039;-84
2021/07/20 00:46:24;;;;;;;9.90;3.72;;;17.80;75.50;;;;;;5090120;27;20897;-86
2021/07/20 00:48:49;;;;;;;8.73;3.40;;;17.70;74.80;;;;;;5088415;28;20040;-86
2021/07/20 00:51:15;;;;;;;9.88;3.95;;;17.70;74.90;;;;;;5090161;28;20107;-86
2021/07/20 00:53:41;;;;;;;10.32;4.05;;;17.70;75.10;;;;;;5088163;28;20068;-85
2021/07/20 00:56:06;;;;;;;11.68;4.28;;;17.70;75.10;;;;;;5088743;28;20024;-86
2021/07/20 00:58:32;;;;;;;9.38;4.30;;;17.60;75.10;;;;;;5088496;28;20157;-86
2021/07/20 01:00:58;;;;;;;11.38;4.18;;;17.60;75.30;;;;;;5088305;28;20083;-85
2021/07/20 01:03:24;;;;;;;8.13;4.03;;;17.60;75.30;;;;;;5088547;28;20344;-86
2021/07/20 01:05:50;;;;;;;9.60;3.70;;;17.60;75.30;;;;;;5089488;28;20109;-85
2021/07/20 01:08:16;;;;;;;10.23;4.20;;;17.60;75.50;;;;;;5088715;28;20123;-86
2021/07/20 01:10:43;;;;;;;9.80;4.30;;;17.70;75.60;;;;;;5089141;28;20046;-85
2021/07/20 01:13:11;;;;;;;10.30;4.05;;;17.60;75.60;;;;;;5089967;28;20016;-85
2021/07/20 01:15:37;;;;;;;10.43;4.40;;;17.60;75.60;;;;;;5089497;28;20020;-81
2021/07/20 01:18:05;;;;;;;8.48;3.78;;;17.70;75.80;;;;;;5089691;28;20070;-85
2021/07/20 01:20:32;;;;;;;8.50;3.50;;;17.60;75.80;;;;;;5088070;28;20498;-84
2021/07/20 01:23:17;;;;;;;11.48;4.43;;;17.60;75.80;;;;;;5087643;28;20020;-84
2021/07/20 01:25:42;;;;;;;9.70;4.05;;;17.60;75.90;;;;;;5087613;28;20016;-84
2021/07/20 01:28:13;;;;;;;10.20;4.72;;;17.50;75.90;;;;;;5087954;28;20109;-84
2021/07/20 01:30:42;;;;;;;9.33;3.50;;;17.60;76.10;;;;;;5087373;28;20477;-83
2021/07/20 01:33:08;;;;;;;11.07;4.60;;;17.60;76.20;;;;;;5088154;28;20088;-84
2021/07/20 01:35:35;;;;;;;8.35;4.22;;;17.60;76.20;;;;;;5087964;28;20051;-84
2021/07/20 01:38:03;;;;;;;10.13;4.28;;;17.50;76.20;;;;;;5087381;28;20119;-83
2021/07/20 01:40:29;;;;;;;10.43;3.80;;;17.60;76.20;;;;;;5089368;28;20023;-83
2021/07/20 01:42:56;;;;;;;8.63;3.72;;;17.50;76.30;;;;;;5087439;28;20110;-84
2021/07/20 01:45:23;;;;;;;10.40;4.72;;;17.50;76.50;;;;;;5088537;28;20063;-84
2021/07/20 01:47:50;;;;;;;14.13;4.47;;;17.50;76.50;;;;;;5087259;28;20460;-84
2021/07/20 01:50:19;;;;;;;10.93;4.13;;;17.50;76.50;;;;;;5087561;28;20089;-84
2021/07/20 01:52:46;;;;;;;11.63;4.45;;;17.50;76.60;;;;;;5086826;28;20020;-84
2021/07/20 01:55:14;;;;;;;11.48;4.22;;;17.40;76.80;;;;;;5088643;28;20024;-84
2021/07/20 01:57:40;;;;;;;9.65;3.78;;;17.40;76.80;;;;;;5075302;28;20067;-79
2021/07/20 02:00:08;;;;;;;9.43;4.05;;;17.40;76.90;;;;;;5074161;28;20109;-84
2021/07/20 02:02:49;;;;;;;12.07;3.95;;;17.40;77.00;;;;;;5073806;28;20013;-84
2021/07/20 02:10:48;;;;;;;10.40;3.92;;;17.30;77.10;;;;;;5074884;28;20471;-83
2021/07/20 02:13:16;;;;;;;10.57;3.92;;;17.30;77.10;;;;;;5074010;28;20017;-84
2021/07/20 02:15:43;;;;;;;10.80;4.35;;;17.30;77.20;;;;;;5074808;28;20046;-84
2021/07/20 02:18:10;;;;;;;9.98;3.85;;;17.30;77.20;;;;;;5076859;28;20020;-85
2021/07/20 02:20:40;;;;;;;9.32;4.35;;;17.30;77.30;;;;;;5088441;28;20056;-84
2021/07/20 02:23:07;;;;;;;8.48;4.13;;;17.30;77.30;;;;;;5074904;28;20028;-84
2021/07/20 02:25:34;;;;;;;11.25;3.63;;;17.30;77.30;;;;;;5074792;28;20024;-84
2021/07/20 02:28:00;;;;;;;10.75;4.45;;;17.20;77.40;;;;;;5073995;28;20077;-84
2021/07/20 02:30:27;;;;;;;7.85;4.15;;;17.20;77.60;;;;;;5073586;28;20024;-85
2021/07/20 02:32:54;;;;;;;9.85;4.45;;;17.20;77.60;;;;;;5073982;28;20436;-84
2021/07/20 02:35:26;;;;;;;9.27;4.00;;;17.20;77.80;;;;;;5073372;28;20024;-85
2021/07/20 02:37:54;;;;;;;10.90;4.20;;;17.20;78.40;;;;;;5072478;28;20025;-84
2021/07/20 02:40:24;;;;;;;12.32;4.35;;;17.10;77.70;;;;;;5074382;28;20012;-84
2021/07/20 02:42:56;;;;;;;12.50;4.53;;;17.10;77.70;;;;;;5056143;28;20025;-82
2021/07/20 02:45:22;;;;;;;8.38;3.40;;;17.20;77.80;;;;;;5074064;28;20566;-83
2021/07/20 02:47:49;;;;;;;8.77;4.03;;;17.10;77.60;;;;;;5074021;28;20028;-83
2021/07/20 02:50:19;;;;;;;10.25;3.78;;;17.20;77.80;;;;;;5074348;28;20016;-83
2021/07/20 02:52:47;;;;;;;8.57;4.03;;;17.10;77.70;;;;;;5072313;28;20305;-83
2021/07/20 02:55:18;;;;;;;9.15;4.05;;;17.10;77.60;;;;;;5074378;28;20103;-83
2021/07/20 02:57:45;;;;;;;9.20;4.33;;;17.10;77.60;;;;;;5074284;28;20470;-84
2021/07/20 03:00:12;;;;;;;9.85;3.65;;;17.10;77.60;;;;;;5073052;28;20259;-84
2021/07/20 03:02:42;;;;;;;10.35;4.30;;;17.10;77.60;;;;;;5076235;28;20028;-83
2021/07/20 03:05:09;;;;;;;10.57;4.05;;;17.10;77.60;;;;;;5082247;28;20036;-83
2021/07/20 03:07:39;;;;;;;10.82;4.47;;;17.10;77.60;;;;;;5083559;28;20524;-83
2021/07/20 03:10:06;;;;;;;9.40;4.38;;;17.10;77.50;;;;;;5076993;28;20267;-84
2021/07/20 03:12:33;;;;;;;10.35;4.00;;;17.00;77.40;;;;;;5074066;28;20021;-84
2021/07/20 03:14:59;;;;;;;9.60;3.83;;;17.00;77.50;;;;;;5071575;28;20031;-83
2021/07/20 03:17:27;;;;;;;9.82;3.65;;;17.00;77.50;;;;;;5072400;28;20021;-83
2021/07/20 03:19:56;;;;;;;13.02;4.63;;;17.00;78.20;;;;;;5073215;28;20024;-84
2021/07/20 03:22:26;;;;;;;10.50;4.45;;;17.00;77.70;;;;;;5073406;28;20047;-84
2021/07/20 03:24:54;;;;;;;9.23;3.83;;;17.00;77.80;;;;;;5071277;28;20114;-83
2021/07/20 03:27:22;;;;;;;8.60;3.83;;;17.00;77.80;;;;;;5073392;28;20111;-85
2021/07/20 03:29:48;;;;;;;10.43;4.15;;;17.00;77.70;;;;;;5072962;28;20458;-83
2021/07/20 03:32:20;;;;;;;9.15;4.10;;;17.00;77.70;;;;;;5072079;28;20402;-84
2021/07/20 03:34:46;;;;;;;11.75;4.75;;;17.00;77.70;;;;;;5073455;28;20360;-84
2021/07/20 03:37:12;;;;;;;8.90;4.43;;;16.90;77.60;;;;;;5072018;28;20024;-83
2021/07/20 03:39:40;;;;;;;8.68;3.72;;;16.90;77.70;;;;;;5073097;28;20031;-83
2021/07/20 03:42:08;;;;;;;10.90;4.32;;;16.90;77.70;;;;;;5071174;28;20024;-84
2021/07/20 03:44:35;;;;;;;11.25;4.10;;;16.80;77.70;;;;;;5071695;28;20020;-84
2021/07/20 03:47:01;;;;;;;9.52;5.00;;;16.80;77.90;;;;;;5070963;28;20040;-84
2021/07/20 03:49:28;;;;;;;12.32;4.65;;;16.70;77.90;;;;;;5071831;28;20356;-84
2021/07/20 03:52:00;;;;;;;10.77;4.22;;;16.70;78.00;;;;;;5071065;28;20031;-83
2021/07/20 03:54:30;;;;;;;10.88;4.22;;;16.80;78.10;;;;;;5069427;28;20456;-82
2021/07/20 03:56:57;;;;;;;8.15;4.10;;;16.80;78.10;;;;;;5096720;28;20125;-83
2021/07/20 03:59:26;;;;;;;11.07;3.90;;;16.70;78.00;;;;;;5071522;28;20012;-83
2021/07/20 04:01:55;;;;;;;9.70;4.57;;;16.80;78.00;;;;;;5071067;28;20009;-83
2021/07/20 04:04:23;;;;;;;9.65;4.45;;;16.80;78.20;;;;;;5071650;28;20033;-83
2021/07/20 04:06:50;;;;;;;9.90;4.00;;;16.80;78.20;;;;;;5072555;28;20092;-79
2021/07/20 04:09:16;;;;;;;11.55;4.35;;;16.80;78.30;;;;;;5071341;28;20199;-84
2021/07/20 04:11:43;;;;;;;11.20;3.70;;;16.80;78.30;;;;;;5072420;28;20063;-83
2021/07/20 04:14:11;;;;;;;9.77;4.10;;;16.80;78.30;;;;;;5071479;28;20063;-83
2021/07/20 04:16:39;;;;;;;9.95;4.43;;;16.80;78.30;;;;;;5072141;28;20066;-84
2021/07/20 04:19:05;;;;;;;12.88;5.20;;;16.70;78.30;;;;;;5070259;28;20016;-83
2021/07/20 04:21:31;;;;;;;9.60;4.32;;;16.70;78.30;;;;;;5072437;28;20021;-84
2021/07/20 04:23:57;;;;;;;11.50;4.05;;;16.70;78.30;;;;;;5070485;28;20062;-83
2021/07/20 04:26:24;;;;;;;13.00;4.82;;;16.80;78.40;;;;;;5072295;28;20031;-84
2021/07/20 04:28:50;;;;;;;8.30;4.35;;;16.70;78.30;;;;;;5070421;28;20020;-80
2021/07/20 04:31:19;;;;;;;10.35;4.60;;;16.80;78.50;;;;;;5071099;28;20016;-84
2021/07/20 04:33:46;;;;;;;10.27;4.05;;;16.80;78.60;;;;;;5072266;28;20017;-84
2021/07/20 04:36:14;;;;;;;8.13;3.80;;;16.80;78.50;;;;;;5071889;28;20032;-85
2021/07/20 04:38:41;;;;;;;8.70;3.55;;;16.80;78.40;;;;;;5071111;28;20012;-84
2021/07/20 04:41:07;;;;;;;7.85;3.55;;;16.80;78.30;;;;;;5070417;28;20026;-84
2021/07/20 04:43:34;;;;;;;9.18;3.83;;;16.80;78.20;;;;;;5071254;28;20028;-84
2021/07/20 04:46:01;;;;;;;8.15;3.65;;;16.80;78.20;;;;;;5071711;28;20472;-84
2021/07/20 04:48:27;;;;;;;5.80;3.20;;;16.80;78.20;;;;;;5072381;28;20013;-84
2021/07/20 04:50:54;;;;;;;7.63;3.42;;;16.70;78.20;;;;;;5071647;28;20020;-83
2021/07/20 04:53:21;;;;;;;6.82;3.08;;;16.80;78.20;;;;;;5072406;28;20027;-84
2021/07/20 04:55:50;;;;;;;8.35;3.42;;;16.70;78.10;;;;;;5071008;28;20020;-85
2021/07/20 04:58:16;;;;;;;7.80;3.13;;;16.80;78.20;;;;;;5072074;28;20021;-83
2021/07/20 05:00:43;;;;;;;12.05;4.10;;;16.80;78.10;;;;;;5071820;28;20024;-81
2021/07/20 05:03:09;;;;;;;8.23;4.05;;;16.80;78.10;;;;;;5070518;28;20031;-83
2021/07/20 05:05:38;;;;;;;9.15;3.90;;;16.80;78.00;;;;;;5070464;28;20028;-81
2021/07/20 05:08:08;;;;;;;7.40;2.85;;;16.80;78.10;;;;;;5069147;28;20469;-81
2021/07/20 05:10:36;;;;;;;9.18;3.30;;;16.80;78.00;;;;;;5068353;28;20112;-85
2021/07/20 05:13:02;;;;;;;6.45;2.85;;;16.90;78.10;;;;;;5067836;28;20021;-80
2021/07/20 05:15:28;;;;;;;6.80;3.22;;;16.90;78.00;;;;;;5066152;28;20036;-81
2021/07/20 05:17:54;;;;;;;10.02;3.40;;;16.90;77.90;;;;;;5048993;28;20025;-82
2021/07/20 05:20:20;;;;;;;9.52;3.95;;;16.90;77.90;;;;;;5081819;28;20021;-84
2021/07/20 05:22:46;;;;;;;7.50;3.30;;;16.90;77.60;;;;;;5048446;28;20038;-78
2021/07/20 05:25:13;;;;;;;8.43;3.30;;;16.90;77.50;;;;;;5049116;28;20032;-81
2021/07/20 05:27:43;;;;;;;9.30;3.90;;;16.90;77.50;;;;;;5050294;28;20021;-81
2021/07/20 05:30:11;;;;;;;8.10;3.25;;;16.90;77.60;;;;;;5050694;28;20115;-83
2021/07/20 05:32:40;;;;;;;6.65;2.90;;;16.90;77.50;;;;;;5052773;28;20024;-83
2021/07/20 05:35:09;;;;;;;6.00;2.92;;;16.90;77.40;;;;;;5053355;28;20057;-82
2021/07/20 05:37:36;;;;;;;7.07;3.40;;;17.00;77.40;;;;;;5053978;28;20013;-82
2021/07/20 05:40:07;;;;;;;5.22;2.80;;;17.00;77.50;;;;;;5053638;28;20443;-82
2021/07/20 05:42:34;;;;;;;8.30;3.17;;;17.00;77.30;;;;;;5054159;28;20012;-82
2021/07/20 05:45:02;;;;;;;8.77;4.20;;;17.00;77.10;;;;;;5054224;28;20064;-82
2021/07/20 05:47:29;;;;;;;8.60;3.50;;;17.00;77.20;;;;;;5054211;28;20025;-83
2021/07/20 05:49:55;;;;;;;7.10;3.22;;;17.00;77.30;;;;;;5055387;28;20467;-82
2021/07/20 05:52:21;;;;;;;7.38;3.53;;;17.10;77.40;;;;;;5065580;28;20049;-82
2021/07/20 05:54:47;;;;;;;7.97;3.58;;;17.10;77.20;;;;;;5055167;28;20156;-83
2021/07/20 05:57:14;;;;;;;7.35;3.65;;;17.10;77.30;;;;;;5054828;28;20032;-82
2021/07/20 05:59:42;;;;;;;7.07;3.28;;;17.10;77.40;;;;;;5063147;28;20013;-82
2021/07/20 06:02:13;;;;;;;5.85;2.80;;;17.10;77.20;;;;;;5062127;28;20013;-83
2021/07/20 06:04:39;;;;;;;8.82;3.10;;;17.20;77.00;;;;;;5062241;28;20148;-82
2021/07/20 06:07:07;;;;;;;7.13;2.58;;;17.20;76.90;;;;;;5057518;28;20025;-83
2021/07/20 06:09:33;;;;;;;5.38;2.42;;;17.20;76.80;;;;;;5053937;28;20457;-82
2021/07/20 06:12:00;;;;;;;8.35;3.20;;;17.20;76.60;;;;;;5054218;28;20025;-82
2021/07/20 06:14:29;;;;;;;7.80;2.92;;;17.20;76.50;;;;;;5055117;28;20031;-83
2021/07/20 06:16:55;;;;;;;7.63;2.88;;;17.20;76.70;;;;;;5054810;28;20021;-83
2021/07/20 06:19:21;;;;;;;6.38;2.80;;;17.30;76.80;;;;;;5053010;28;20404;-83
2021/07/20 06:21:48;;;;;;;8.75;3.30;;;17.30;76.60;;;;;;5053380;28;20060;-83
2021/07/20 06:24:14;;;;;;;8.15;3.10;;;17.30;76.60;;;;;;5053634;28;20079;-83
2021/07/20 06:26:42;;;;;;;7.35;3.25;;;17.30;76.60;;;;;;5054763;28;20029;-83
2021/07/20 06:29:09;;;;;;;6.10;2.92;;;17.40;76.60;;;;;;5056393;28;20028;-83
2021/07/20 06:31:40;;;;;;;7.63;3.25;;;17.40;76.80;;;;;;5055101;28;20025;-83
2021/07/20 06:34:06;;;;;;;5.88;2.80;;;17.50;76.80;;;;;;5052638;28;20066;-81
2021/07/20 06:36:37;;;;;;;8.90;3.15;;;17.50;76.70;;;;;;5086402;28;20476;-82
2021/07/20 06:39:06;;;;;;;6.43;3.30;;;17.50;76.80;;;;;;5053619;28;20013;-82
2021/07/20 06:41:37;;;;;;;4.93;2.45;;;17.50;76.90;;;;;;5053759;28;20021;-81
2021/07/20 06:44:04;;;;;;;9.88;3.47;;;17.50;77.10;;;;;;5052016;28;20021;-81
2021/07/20 06:46:30;;;;;;;7.15;2.83;;;17.60;77.00;;;;;;5053613;28;20053;-83
2021/07/20 06:48:57;;;;;;;6.32;2.70;;;17.60;76.80;;;;;;5052606;28;20155;-82
2021/07/20 06:51:24;;;;;;;6.70;2.97;;;17.60;76.70;;;;;;5053201;28;20020;-82
2021/07/20 06:53:52;;;;;;;6.05;2.88;;;17.70;76.40;;;;;;5052500;28;20402;-82
2021/07/20 06:56:23;;;;;;;5.25;2.65;;;17.70;76.30;;;;;;5053111;28;20108;-83
2021/07/20 06:58:50;;;;;;;8.43;3.72;;;17.70;76.20;;;;;;5052554;28;20013;-82
2021/07/20 07:01:19;;;;;;;5.50;2.58;;;17.70;76.30;;;;;;5051799;28;20461;-82
2021/07/20 07:03:56;;;;;;;6.47;2.95;;;17.70;76.10;;;;;;5052703;28;20518;-82
2021/07/20 07:06:24;;;;;;;7.63;3.20;;;17.80;75.90;;;;;;5051726;28;20531;-82
2021/07/20 07:08:52;;;;;;;5.07;2.92;;;17.80;76.00;;;;;;5052315;28;20453;-82
2021/07/20 07:11:19;;;;;;;8.13;3.28;;;17.90;75.80;;;;;;5051660;28;20024;-82
2021/07/20 07:13:45;;;;;;;7.03;3.42;;;17.90;75.50;;;;;;5053560;28;20028;-83
2021/07/20 07:16:12;;;;;;;8.77;3.42;;;17.90;75.30;;;;;;5051365;28;20184;-82
2021/07/20 07:18:38;;;;;;;6.85;3.08;;;17.90;75.00;;;;;;5053545;28;20057;-82
2021/07/20 07:21:05;;;;;;;7.28;3.08;;;18.00;75.10;;;;;;5051503;28;20028;-81
2021/07/20 07:23:32;;;;;;;7.95;3.15;;;18.00;74.80;;;;;;5051938;28;20453;-82
2021/07/20 07:26:01;;;;;;;7.45;3.30;;;18.00;74.60;;;;;;5051789;28;20412;-82
2021/07/20 07:28:27;;;;;;;7.65;3.38;;;18.10;74.60;;;;;;5052720;28;20025;-82
2021/07/20 07:30:54;;;;;;;7.82;2.90;;;18.10;74.50;;;;;;5052036;28;20009;-83
2021/07/20 07:33:22;;;;;;;7.75;3.78;;;18.20;74.50;;;;;;5052391;28;20070;-81
2021/07/20 07:35:49;;;;;;;8.00;3.25;;;18.20;74.50;;;;;;5051796;28;20025;-82
2021/07/20 07:38:18;;;;;;;8.55;3.35;;;18.20;74.20;;;;;;5084666;28;20025;-82
2021/07/20 07:40:54;;;;;;;5.85;2.72;;;18.20;73.90;;;;;;5051663;28;20020;-82
2021/07/20 07:43:23;;;;;;;7.40;3.00;;;18.30;73.50;;;;;;5052328;28;20017;-82
2021/07/20 07:45:51;;;;;;;5.95;2.90;;;18.30;73.70;;;;;;5051562;28;20051;-81
2021/07/20 07:48:17;;;;;;;8.23;3.22;;;18.30;73.50;;;;;;5053558;28;20036;-82
2021/07/20 07:50:43;;;;;;;7.65;3.10;;;18.40;73.50;;;;;;5084980;28;20013;-82
2021/07/20 07:53:09;;;;;;;6.25;3.22;;;18.40;73.10;;;;;;5050859;28;20017;-82
2021/07/20 07:55:36;;;;;;;8.73;3.40;;;18.40;73.10;;;;;;5050860;28;20518;-83
2021/07/20 07:58:03;;;;;;;7.47;3.05;;;18.50;73.00;;;;;;5052797;28;20021;-82
2021/07/20 08:00:33;;;;;;;8.13;2.95;;;18.50;72.70;;;;;;5050782;28;20025;-82
2021/07/20 08:03:01;;;;;;;9.52;3.70;;;18.50;72.40;;;;;;5052339;28;20028;-83
2021/07/20 08:05:27;;;;;;;9.00;3.40;;;18.60;72.00;;;;;;5050428;28;20037;-82
2021/07/20 08:07:54;;;;;;;8.35;2.92;;;18.60;71.80;;;;;;5051227;28;20032;-82
2021/07/20 08:10:20;;;;;;;8.35;3.53;;;18.60;71.60;;;;;;5050501;28;20013;-82
2021/07/20 08:12:47;;;;;;;9.48;3.45;;;18.60;71.30;;;;;;5051195;28;20025;-83
2021/07/20 08:15:14;;;;;;;7.75;3.20;;;18.60;71.30;;;;;;5050584;28;20520;-82
2021/07/20 08:17:41;;;;;;;9.75;2.85;;;18.70;71.00;;;;;;5051218;28;20021;-83
2021/07/20 08:20:08;;;;;;;5.65;3.08;;;18.70;71.00;;;;;;5052831;28;20170;-82
2021/07/20 08:22:34;;;;;;;7.10;3.60;;;18.80;70.80;;;;;;5086792;28;20485;-82
2021/07/20 08:25:13;;;;;;;7.72;3.70;;;18.80;70.70;;;;;;5054600;28;20021;-82
2021/07/20 08:27:47;;;;;;;7.55;3.38;;;18.90;70.50;;;;;;5053799;28;20031;-83
2021/07/20 08:30:15;;;;;;;8.13;3.30;;;18.90;70.60;;;;;;5051822;28;20028;-83
2021/07/20 08:32:51;;;;;;;6.22;2.90;;;18.90;70.70;;;;;;5051589;28;20059;-82
2021/07/20 08:35:21;;;;;;;5.95;2.95;;;19.00;70.40;;;;;;5050809;28;20120;-83
2021/07/20 08:37:50;;;;;;;6.78;2.92;;;19.00;70.30;;;;;;5052723;28;20021;-83
2021/07/20 08:40:53;;;;;;;7.55;3.13;;;19.10;69.80;;;;;;5052307;28;20021;-83
2021/07/20 08:43:42;;;;;;;8.15;3.63;;;19.30;69.60;;;;;;5049444;28;20544;-84
2021/07/20 08:46:38;;;;;;;6.07;2.97;;;19.20;69.40;;;;;;5052130;28;20057;-83
2021/07/20 08:50:00;;;;;;;8.20;3.50;;;19.20;69.70;;;;;;5052601;28;20025;-82
2021/07/20 08:52:35;;;;;;;8.05;3.28;;;19.20;70.00;;;;;;5049019;28;20060;-83
2021/07/20 08:55:14;;;;;;;6.25;3.13;;;19.20;70.50;;;;;;5050116;28;20029;-83
2021/07/20 08:57:54;;;;;;;7.65;2.80;;;19.20;69.70;;;;;;5048167;28;20048;-84
2021/07/20 09:00:26;;;;;;;7.55;2.92;;;19.40;69.10;;;;;;5051974;28;20097;-83
2021/07/20 09:03:25;;;;;;;8.20;3.97;;;19.40;68.70;;;;;;5052737;28;20021;-83
2021/07/20 09:06:03;;;;;;;9.73;3.30;;;19.60;68.30;;;;;;5051005;28;20025;-84
2021/07/20 09:08:52;;;;;;;9.25;4.43;;;19.70;68.50;;;;;;5054746;28;20032;-83
2021/07/20 09:11:45;;;;;;;10.05;3.42;;;19.80;68.50;;;;;;5055932;28;20097;-82
2021/07/20 09:14:31;;;;;;;7.70;3.58;;;19.90;68.20;;;;;;5056341;28;20467;-81
2021/07/20 09:17:35;;;;;;;7.38;3.50;;;19.90;68.20;;;;;;5055125;28;20021;-82
2021/07/20 09:20:11;;;;;;;6.90;3.08;;;19.90;68.30;;;;;;5054691;28;20059;-83
2021/07/20 09:23:00;;;;;;;6.68;3.05;;;19.90;68.00;;;;;;5055891;28;20029;-84
2021/07/20 09:25:41;;;;;;;6.70;2.80;;;19.90;67.80;;;;;;5071622;28;20048;-84
2021/07/20 09:28:27;;;;;;;9.07;3.92;;;20.10;67.70;;;;;;5054635;28;20021;-84
2021/07/20 09:30:55;;;;;;;7.60;2.90;;;20.20;67.40;;;;;;5057220;28;20021;-83
2021/07/20 09:33:54;;;;;;;7.78;3.75;;;20.30;67.10;;;;;;5054150;28;20021;-83
2021/07/20 09:36:35;;;;;;;6.90;2.95;;;20.50;66.70;;;;;;5053854;28;20021;-83
2021/07/20 09:39:10;;;;;;;7.25;3.30;;;20.60;66.10;;;;;;5054197;28;20021;-83
2021/07/20 09:42:01;;;;;;;6.95;3.30;;;20.70;65.80;;;;;;5054347;28;20025;-83
2021/07/20 09:44:39;;;;;;;7.55;3.20;;;20.80;65.50;;;;;;5087767;28;20023;-83
2021/07/20 09:47:16;;;;;;;8.35;3.30;;;21.00;64.90;;;;;;5054522;28;20377;-84
2021/07/20 09:50:01;;;;;;;8.38;3.88;;;21.00;64.70;;;;;;5054500;28;20420;-83
2021/07/20 09:52:41;;;;;;;6.57;3.33;;;21.10;64.00;;;;;;5054181;28;20031;-83
2021/07/20 09:55:35;;;;;;;7.85;3.50;;;21.10;64.00;;;;;;5055106;28;20028;-83
2021/07/20 09:58:25;;;;;;;6.40;3.33;;;21.10;64.20;;;;;;5056432;28;20021;-83
2021/07/20 10:01:14;;;;;;;7.57;3.22;;;21.10;64.10;;;;;;5053891;28;20108;-82
2021/07/20 10:03:51;;;;;;;7.20;3.13;;;21.20;64.40;;;;;;5054715;28;20467;-83
2021/07/20 10:06:38;;;;;;;7.82;3.30;;;21.20;64.00;;;;;;5053552;28;20048;-82
2021/07/20 10:09:18;;;;;;;6.00;3.40;;;21.10;64.00;;;;;;5055910;28;20021;-84
2021/07/20 10:11:53;;;;;;;9.18;3.85;;;21.10;64.10;;;;;;5054340;28;20028;-83
2021/07/20 10:14:28;;;;;;;8.07;3.17;;;21.10;64.00;;;;;;5054481;28;20369;-84
2021/07/20 10:17:08;;;;;;;6.53;3.30;;;21.00;64.20;;;;;;5054524;28;20078;-84
2021/07/20 10:19:57;;;;;;;7.15;2.70;;;21.00;64.10;;;;;;5054369;28;20021;-84
2021/07/20 10:22:29;;;;;;;6.22;2.97;;;21.10;64.00;;;;;;5086430;28;20457;-84
2021/07/20 10:25:00;;;;;;;5.90;2.50;;;21.10;63.80;;;;;;5056133;28;20131;-83
2021/07/20 10:27:39;;;;;;;8.45;3.38;;;21.20;63.50;;;;;;5092357;28;20024;-83
2021/07/20 10:30:09;;;;;;;8.13;3.42;;;21.30;63.20;;;;;;5072508;28;20020;-84
2021/07/20 10:33:00;;;;;;;6.13;3.45;;;21.40;62.80;;;;;;5059745;28;20021;-83
2021/07/20 10:35:53;;;;;;;7.38;2.95;;;21.50;62.40;;;;;;5055168;28;20096;-83
2021/07/20 10:38:22;;;;;;;7.18;2.95;;;21.60;61.70;;;;;;5053084;28;20021;-83
2021/07/20 10:40:53;;;;;;;7.60;3.20;;;21.60;62.00;;;;;;5054387;28;20020;-82
2021/07/20 10:43:19;;;;;;;;;;;21.60;61.80;;;;;;5053176;28;20020;-83
2021/07/20 10:45:46;;;;;;;6.65;3.17;;;21.60;62.00;;;;;;5054289;28;19912;-83
2021/07/20 10:48:26;;;;;;;6.18;2.72;;;21.60;61.90;;;;;;5053106;28;20353;-83
2021/07/20 10:51:06;;;;;;;7.40;3.28;;;21.70;61.80;;;;;;5053110;28;20017;-83
2021/07/20 10:54:04;;;;;;;6.47;2.78;;;21.80;61.60;;;;;;5052589;28;20013;-83
2021/07/20 10:56:46;;;;;;;6.43;2.75;;;21.90;61.40;;;;;;5053425;28;20016;-83
2021/07/20 10:59:34;;;;;;;7.93;3.15;;;21.90;61.20;;;;;;5054018;28;20017;-83
2021/07/20 11:02:32;;;;;;;7.70;3.53;;;21.90;61.00;;;;;;5054234;28;20480;-82
2021/07/20 11:05:00;;;;;;;6.55;2.58;;;22.00;60.80;;;;;;5053966;28;20032;-83
2021/07/20 11:07:47;;;;;;;6.75;2.90;;;22.00;60.80;;;;;;5053263;28;20406;-82
2021/07/20 11:10:31;;;;;;;6.10;2.90;;;22.00;60.70;;;;;;5052525;28;20028;-83
2021/07/20 11:13:07;;;;;;;6.78;3.10;;;22.00;60.70;;;;;;5052653;28;20353;-83
2021/07/20 11:15:36;;;;;;;7.13;3.10;;;21.90;61.00;;;;;;5051821;28;20021;-84
2021/07/20 11:18:07;;;;;;;6.90;3.20;;;21.90;61.20;;;;;;5052511;28;20013;-83
2021/07/20 11:20:34;;;;;;;7.28;3.10;;;21.90;61.20;;;;;;5051614;28;20392;-83
2021/07/20 11:23:01;;;;;;;6.25;2.95;;;22.00;61.00;;;;;;5053663;28;20017;-83
2021/07/20 11:25:28;;;;;;;6.60;3.33;;;22.10;60.80;;;;;;5053173;28;20025;-83
2021/07/20 11:27:58;;;;;;;7.45;3.00;;;22.10;60.80;;;;;;5052130;28;20377;-84
2021/07/20 11:30:26;;;;;;;7.43;3.03;;;22.20;60.80;;;;;;5051088;28;20334;-82
2021/07/20 11:32:57;;;;;;;7.82;3.63;;;22.30;60.90;;;;;;5053480;28;20017;-84
2021/07/20 11:35:26;;;;;;;7.75;3.40;;;22.40;60.50;;;;;;5053363;28;20484;-83
2021/07/20 11:38:00;;;;;;;6.50;3.28;;;22.50;60.50;;;;;;5052106;28;20354;-83
2021/07/20 11:40:35;;;;;;;6.53;3.60;;;22.50;60.30;;;;;;5051316;28;20388;-84
2021/07/20 11:43:09;;;;;;;7.13;3.35;;;22.60;60.00;;;;;;5052203;28;20170;-83
2021/07/20 11:46:09;;;;;;;6.65;3.67;;;22.60;60.10;;;;;;5051367;28;20101;-83
2021/07/20 11:48:50;;;;;;;7.28;3.50;;;22.60;59.90;;;;;;5049798;28;20070;-83
2021/07/20 11:51:32;;;;;;;7.18;3.50;;;22.70;59.90;;;;;;5053372;28;20039;-83
2021/07/20 11:54:09;;;;;;;6.78;3.45;;;22.80;59.90;;;;;;5052136;28;20476;-83
2021/07/20 11:57:05;;;;;;;6.40;3.10;;;22.80;59.50;;;;;;5051218;28;20073;-83
2021/07/20 12:00:09;;;;;;;6.13;3.10;;;22.80;59.60;;;;;;5051453;28;20048;-83
2021/07/20 12:02:52;;;;;;;7.22;3.47;;;22.70;59.50;;;;;;5051530;28;20170;-82
2021/07/20 12:05:46;;;;;;;5.72;3.10;;;22.80;59.80;;;;;;5051588;28;20115;-82
2021/07/20 12:08:24;;;;;;;6.07;2.95;;;23.10;59.30;;;;;;5051348;28;20032;-83
2021/07/20 12:11:00;;;;;;;7.50;3.40;;;23.30;58.50;;;;;;5051697;28;20017;-83
2021/07/20 12:13:27;;;;;;;7.15;3.33;;;23.40;58.10;;;;;;5052141;28;20059;-82
2021/07/20 12:15:55;;;;;;;7.90;4.18;;;23.60;58.00;;;;;;5052524;28;20449;-83
2021/07/20 12:18:22;;;;;;;7.88;3.55;;;23.70;57.50;;;;;;5051530;28;20055;-84
2021/07/20 12:20:50;;;;;;;6.65;3.60;;;23.70;57.60;;;;;;5050584;28;20017;-84
2021/07/20 12:23:16;;;;;;;7.57;3.33;;;23.60;57.50;;;;;;5051998;28;20017;-84
2021/07/20 12:25:43;;;;;;;8.52;3.60;;;23.70;57.60;;;;;;5051987;28;20086;-83
2021/07/20 12:28:10;;;;;;;6.18;3.30;;;23.80;57.30;;;;;;5051428;28;20028;-84
2021/07/20 12:30:36;;;;;;;7.65;3.88;;;23.80;57.30;;;;;;5052364;28;20024;-83
2021/07/20 12:33:13;;;;;;;7.82;3.40;;;23.90;57.10;;;;;;5052924;28;20021;-84
2021/07/20 12:35:43;;;;;;;8.68;4.00;;;23.90;56.90;;;;;;5050840;28;20021;-84
2021/07/20 12:38:10;;;;;;;8.07;4.38;;;24.00;56.60;;;;;;5051765;28;20454;-83
2021/07/20 12:40:38;;;;;;;6.63;3.40;;;24.00;56.40;;;;;;5052443;28;20065;-84
2021/07/20 12:43:15;;;;;;;6.78;3.70;;;24.00;56.20;;;;;;5052423;28;20469;-82
2021/07/20 12:45:45;;;;;;;7.57;3.83;;;24.00;56.10;;;;;;5050297;28;20048;-82
2021/07/20 12:48:50;;;;;;;10.55;4.03;;;24.00;56.20;;;;;;5086765;28;20021;-83
2021/07/20 12:51:18;;;;;;;7.57;3.65;;;24.20;56.20;;;;;;5054636;28;20547;-83
2021/07/20 12:53:45;;;;;;;5.30;3.30;;;24.30;55.80;;;;;;5062647;28;20021;-82
2021/07/20 12:56:37;;;;;;;9.43;3.85;;;24.50;56.20;;;;;;5061882;28;20021;-82
2021/07/20 12:59:05;;;;;;;8.18;3.50;;;24.60;55.50;;;;;;5060250;28;20028;-81
2021/07/20 13:01:37;;;;;;;7.30;3.33;;;24.50;55.50;;;;;;5055310;28;20071;-83
2021/07/20 13:04:05;;;;;;;6.70;3.15;;;24.50;55.70;;;;;;5051820;28;20337;-83
2021/07/20 13:06:36;;;;;;;6.80;3.13;;;24.50;55.70;;;;;;5054005;28;20408;-82
2021/07/20 13:09:03;;;;;;;6.20;3.00;;;24.80;55.50;;;;;;5068056;28;20017;-82
2021/07/20 13:11:37;;;;;;;6.47;2.78;;;25.00;55.20;;;;;;5069850;28;20140;-82
2021/07/20 13:14:04;;;;;;;8.63;3.95;;;25.20;54.70;;;;;;5057334;28;20021;-83